Time;durP1;ratioP1;P1;durP2;ratioP2;P2;SDS_P1;SDS_P2;PMS_P1;PMS_P2;Temp;Humidity;BMP_temperature;BMP_pressure;BME280_temperature;BME280_humidity;BME280_pressure;Samples;Min_cycle;Max_cycle;Signal;HPM_P1;HPM_P2
2023/09/15 00:01:08;;;;;;;25.52;5.20;;;27.20;99.90;;;;;;5014539;28;20037;-51
2023/09/15 00:03:35;;;;;;;26.65;5.82;;;27.20;99.90;;;;;;5014116;28;20026;-52
2023/09/15 00:06:01;;;;;;;23.98;6.47;;;27.20;99.90;;;;;;5013962;28;20036;-51
2023/09/15 00:08:28;;;;;;;30.23;6.72;;;27.20;99.90;;;;;;5014118;28;20030;-51
2023/09/15 00:10:53;;;;;;;18.47;5.37;;;27.20;99.90;;;;;;5013904;28;20036;-51
2023/09/15 00:13:20;;;;;;;28.30;6.07;;;27.20;99.90;;;;;;5013778;28;20256;-51
2023/09/15 00:15:50;;;;;;;22.10;6.68;;;27.30;99.90;;;;;;5013891;28;20028;-52
2023/09/15 00:18:16;;;;;;;23.98;6.55;;;27.20;99.90;;;;;;5013663;28;20100;-52
2023/09/15 00:20:42;;;;;;;25.92;6.97;;;27.20;99.90;;;;;;5013686;28;20057;-51
2023/09/15 00:23:08;;;;;;;28.17;5.43;;;27.30;99.90;;;;;;5013454;28;20037;-51
2023/09/15 00:25:33;;;;;;;29.42;6.32;;;27.20;99.90;;;;;;5013622;28;20034;-51
2023/09/15 00:28:02;;;;;;;25.02;6.85;;;27.20;99.90;;;;;;5013629;28;20029;-51
2023/09/15 00:30:28;;;;;;;18.55;5.82;;;27.20;99.90;;;;;;5013620;28;20487;-51
2023/09/15 00:32:55;;;;;;;18.00;5.20;;;27.20;99.90;;;;;;5013761;28;20108;-51
2023/09/15 00:35:23;;;;;;;19.57;5.27;;;27.20;99.90;;;;;;4995848;28;20112;-51
2023/09/15 00:37:51;;;;;;;28.02;6.43;;;27.30;99.90;;;;;;5013592;28;20030;-51
2023/09/15 00:40:18;;;;;;;23.10;6.28;;;27.30;99.90;;;;;;5013220;28;20076;-51
2023/09/15 00:42:45;;;;;;;17.77;6.45;;;27.20;99.90;;;;;;5013541;28;20053;-52
2023/09/15 00:45:14;;;;;;;30.05;9.38;;;27.20;99.90;;;;;;5013204;28;21338;-52
2023/09/15 00:47:46;;;;;;;20.67;5.53;;;27.20;99.90;;;;;;5013349;28;20060;-52
2023/09/15 00:50:14;;;;;;;20.77;6.68;;;27.10;99.90;;;;;;5013342;28;20041;-52
2023/09/15 00:52:44;;;;;;;23.73;7.15;;;27.10;99.90;;;;;;5012944;28;20038;-52
2023/09/15 00:55:13;;;;;;;27.23;6.13;;;27.10;99.90;;;;;;5013228;28;20025;-52
2023/09/15 00:57:40;;;;;;;17.40;5.30;;;27.10;99.90;;;;;;4995019;28;20353;-52
2023/09/15 01:02:47;;;;;;;30.70;7.72;;;27.00;99.90;;;;;;5030282;28;20045;-55
2023/09/15 01:05:23;;;;;;;35.40;7.60;;;27.00;99.90;;;;;;5032817;28;20018;-55
2023/09/15 01:07:53;;;;;;;26.73;6.80;;;27.00;99.90;;;;;;5015591;28;20588;-53
2023/09/15 01:10:20;;;;;;;30.50;7.15;;;27.00;99.90;;;;;;5032508;28;20206;-54
2023/09/15 01:12:48;;;;;;;22.95;6.32;;;27.00;99.90;;;;;;5032441;28;20089;-53
2023/09/15 01:15:16;;;;;;;29.60;7.15;;;27.00;99.90;;;;;;5032539;28;20200;-54
2023/09/15 01:17:50;;;;;;;22.77;5.95;;;26.90;99.90;;;;;;5032305;28;20483;-53
2023/09/15 01:20:21;;;;;;;23.95;6.72;;;27.00;99.90;;;;;;5014826;28;20132;-53
2023/09/15 01:23:26;;;;;;;32.80;6.93;;;27.00;99.90;;;;;;5014628;28;20476;-53
2023/09/15 01:26:36;;;;;;;28.33;6.82;;;27.00;99.90;;;;;;5032536;28;20060;-53
2023/09/15 01:29:18;;;;;;;27.30;5.40;;;27.00;99.90;;;;;;5032410;28;20022;-53
2023/09/15 01:31:47;;;;;;;28.83;5.78;;;26.90;99.90;;;;;;5032226;28;20071;-53
2023/09/15 01:34:16;;;;;;;22.80;6.13;;;27.00;99.90;;;;;;5032229;28;20033;-53
2023/09/15 01:36:44;;;;;;;16.25;5.80;;;26.90;99.90;;;;;;5032184;28;20025;-54
2023/09/15 01:39:10;;;;;;;24.85;5.97;;;26.90;99.90;;;;;;5032140;28;20365;-53
2023/09/15 01:41:35;;;;;;;23.13;6.70;;;26.90;99.90;;;;;;5014181;28;20037;-53
2023/09/15 01:44:01;;;;;;;19.52;6.35;;;26.90;99.90;;;;;;5032247;28;20014;-55
2023/09/15 01:46:27;;;;;;;22.38;4.80;;;26.90;99.90;;;;;;5032223;28;20357;-54
2023/09/15 01:48:58;;;;;;;25.30;5.97;;;26.90;99.90;;;;;;5031326;28;20358;-54
2023/09/15 01:51:25;;;;;;;22.33;5.20;;;26.90;99.90;;;;;;5022942;28;20030;-53
2023/09/15 01:53:52;;;;;;;28.15;6.07;;;26.80;99.90;;;;;;5023949;28;20084;-53
2023/09/15 01:56:19;;;;;;;21.35;5.47;;;26.80;99.90;;;;;;5019523;28;20104;-54
2023/09/15 01:58:45;;;;;;;22.17;6.13;;;26.80;99.90;;;;;;5025007;28;20026;-53
2023/09/15 02:01:14;;;;;;;20.83;6.15;;;26.80;99.90;;;;;;5030126;28;20033;-54
2023/09/15 02:03:40;;;;;;;15.77;5.13;;;26.70;99.90;;;;;;5031526;28;20475;-54
2023/09/15 02:06:06;;;;;;;26.15;6.18;;;26.70;99.90;;;;;;5030726;28;20030;-53
2023/09/15 02:08:32;;;;;;;19.30;5.85;;;26.70;99.90;;;;;;5031120;28;20025;-54
2023/09/15 02:10:58;;;;;;;17.45;5.20;;;26.80;99.90;;;;;;5031571;28;20033;-54
2023/09/15 02:13:24;;;;;;;22.95;5.85;;;26.80;99.90;;;;;;5031593;28;20017;-54
2023/09/15 02:15:53;;;;;;;21.23;6.00;;;26.80;99.90;;;;;;5031527;28;20169;-55
2023/09/15 02:18:20;;;;;;;18.23;5.28;;;26.80;99.90;;;;;;5031610;28;20060;-55
2023/09/15 02:20:56;;;;;;;16.17;5.10;;;26.90;99.90;;;;;;4997558;28;20071;-54
2023/09/15 02:23:23;;;;;;;25.33;5.82;;;26.90;99.90;;;;;;5013685;28;20794;-54
2023/09/15 02:25:49;;;;;;;19.65;4.93;;;26.90;99.90;;;;;;5031507;28;20036;-54
2023/09/15 02:28:15;;;;;;;24.05;5.18;;;26.90;99.90;;;;;;5031495;28;20399;-54
2023/09/15 02:30:41;;;;;;;22.13;6.15;;;26.90;99.90;;;;;;5031518;28;20399;-54
2023/09/15 02:33:07;;;;;;;22.00;5.22;;;26.90;99.90;;;;;;5031349;28;20022;-54
2023/09/15 02:35:34;;;;;;;18.60;5.65;;;26.90;99.90;;;;;;5031365;28;20051;-53
2023/09/15 02:37:59;;;;;;;28.40;6.18;;;26.90;99.90;;;;;;5031577;28;20009;-53
2023/09/15 02:40:26;;;;;;;24.67;5.72;;;26.90;99.90;;;;;;5031331;28;20563;-53
2023/09/15 02:42:52;;;;;;;21.42;5.57;;;26.90;99.90;;;;;;5031298;28;20021;-54
2023/09/15 02:45:18;;;;;;;20.73;6.43;;;27.00;99.90;;;;;;5031246;28;20025;-53
2023/09/15 02:47:43;;;;;;;22.33;5.68;;;27.00;99.90;;;;;;5013434;28;20037;-53
2023/09/15 02:50:09;;;;;;;18.88;5.00;;;27.00;99.90;;;;;;5031206;28;20483;-53
2023/09/15 02:52:35;;;;;;;28.60;6.72;;;27.00;99.90;;;;;;5031325;28;20053;-54
2023/09/15 02:55:04;;;;;;;17.38;5.88;;;27.00;99.90;;;;;;5031585;28;20077;-54
2023/09/15 02:57:29;;;;;;;20.17;5.32;;;27.00;99.90;;;;;;5031335;28;20076;-55
2023/09/15 02:59:55;;;;;;;19.95;5.13;;;27.00;99.90;;;;;;5031263;28;20029;-53
2023/09/15 03:02:21;;;;;;;21.48;5.10;;;27.00;99.90;;;;;;5031102;22;20061;-50
2023/09/15 03:04:47;;;;;;;13.75;4.80;;;27.00;99.90;;;;;;5011558;28;20018;-50
2023/09/15 03:07:14;;;;;;;24.27;7.47;;;27.00;99.90;;;;;;5011541;28;20025;-51
2023/09/15 03:09:39;;;;;;;19.88;5.75;;;27.00;99.90;;;;;;4993705;28;20038;-50
2023/09/15 03:12:05;;;;;;;18.30;6.22;;;27.00;99.90;;;;;;4993826;28;20034;-51
2023/09/15 03:14:32;;;;;;;21.35;5.55;;;27.00;99.90;;;;;;4993946;28;20057;-50
2023/09/15 03:16:58;;;;;;;19.23;6.10;;;27.00;99.90;;;;;;5011421;28;20018;-51
2023/09/15 03:19:25;;;;;;;27.92;5.47;;;27.00;99.90;;;;;;5011745;28;20581;-51
2023/09/15 03:21:51;;;;;;;23.60;5.85;;;27.00;99.90;;;;;;5014965;28;20029;-51
2023/09/15 03:24:18;;;;;;;20.27;5.63;;;27.00;99.90;;;;;;5015115;28;20180;-51
2023/09/15 03:26:44;;;;;;;20.00;5.55;;;27.00;99.90;;;;;;5014708;28;20025;-51
2023/09/15 03:29:09;;;;;;;28.40;6.85;;;27.00;99.90;;;;;;4997359;28;20034;-51
2023/09/15 03:31:35;;;;;;;19.38;5.82;;;27.00;99.90;;;;;;5014950;28;20033;-51
2023/09/15 03:34:01;;;;;;;27.65;5.45;;;27.00;99.90;;;;;;5014890;28;20030;-51
2023/09/15 03:36:28;;;;;;;17.55;5.15;;;27.00;99.90;;;;;;5014788;28;20070;-51
2023/09/15 03:38:54;;;;;;;20.15;6.05;;;26.90;99.90;;;;;;5014784;28;20014;-51
2023/09/15 03:41:20;;;;;;;22.48;5.88;;;26.90;99.90;;;;;;5014711;28;20033;-52
2023/09/15 03:43:46;;;;;;;18.58;5.03;;;26.90;99.90;;;;;;5014557;28;20014;-51
2023/09/15 03:46:12;;;;;;;19.88;5.28;;;26.90;99.90;;;;;;5014595;28;20490;-51
2023/09/15 03:48:37;;;;;;;19.15;5.63;;;26.90;99.90;;;;;;5014497;28;20557;-51
2023/09/15 03:51:03;;;;;;;25.70;6.50;;;26.90;99.90;;;;;;5014365;28;20499;-51
2023/09/15 03:53:29;;;;;;;45.47;6.35;;;26.90;99.90;;;;;;5014473;28;20022;-52
2023/09/15 03:55:55;;;;;;;15.13;5.28;;;26.90;99.90;;;;;;5014302;28;20598;-52
2023/09/15 03:58:20;;;;;;;21.33;5.45;;;26.90;99.90;;;;;;5014266;28;20435;-52
2023/09/15 04:00:46;;;;;;;16.05;5.20;;;26.90;99.90;;;;;;5014601;28;20057;-52
2023/09/15 04:03:12;;;;;;;26.75;5.90;;;26.90;99.90;;;;;;5014228;28;20074;-51
2023/09/15 04:05:38;;;;;;;21.83;5.78;;;26.90;99.90;;;;;;5014211;28;20108;-52
2023/09/15 04:08:04;;;;;;;19.25;5.22;;;26.90;99.90;;;;;;5014192;28;20018;-51
2023/09/15 04:10:30;;;;;;;20.23;5.50;;;26.90;99.90;;;;;;5014061;28;20515;-52
2023/09/15 04:12:55;;;;;;;18.17;4.97;;;26.90;99.90;;;;;;5013904;28;20034;-51
2023/09/15 04:15:21;;;;;;;22.33;5.50;;;26.80;99.90;;;;;;5013943;28;20026;-51
2023/09/15 04:17:47;;;;;;;21.92;6.03;;;26.80;99.90;;;;;;5013939;28;20030;-51
2023/09/15 04:20:15;;;;;;;22.77;5.45;;;26.80;99.90;;;;;;5014025;28;20026;-51
2023/09/15 04:22:41;;;;;;;21.58;5.47;;;26.80;99.90;;;;;;4996291;28;20503;-51
2023/09/15 04:25:09;;;;;;;25.30;5.77;;;26.80;99.90;;;;;;5013697;28;20026;-51
2023/09/15 04:27:35;;;;;;;19.60;5.22;;;26.80;99.90;;;;;;4996366;28;20088;-51
2023/09/15 04:30:02;;;;;;;16.00;4.55;;;26.80;99.90;;;;;;5013758;28;20396;-51
2023/09/15 04:32:28;;;;;;;25.38;6.03;;;26.80;99.90;;;;;;5013082;28;20022;-50
2023/09/15 04:34:54;;;;;;;24.63;5.70;;;26.80;99.90;;;;;;5013498;28;20080;-51
2023/09/15 04:37:21;;;;;;;22.38;5.55;;;26.80;99.90;;;;;;5013493;28;20030;-52
2023/09/15 04:39:49;;;;;;;27.80;4.97;;;26.80;99.90;;;;;;5013475;28;20022;-51
2023/09/15 04:42:15;;;;;;;21.52;6.07;;;26.80;99.90;;;;;;5013622;28;20599;-51
2023/09/15 04:44:41;;;;;;;22.08;6.45;;;26.90;99.90;;;;;;5013333;28;20026;-51
2023/09/15 04:47:07;;;;;;;19.67;5.38;;;26.90;99.90;;;;;;5012966;28;20471;-51
2023/09/15 04:49:33;;;;;;;22.63;5.95;;;27.00;99.90;;;;;;5013580;28;20034;-51
2023/09/15 04:51:59;;;;;;;21.52;6.05;;;27.00;99.90;;;;;;5013297;28;20030;-51
2023/09/15 04:54:28;;;;;;;20.17;5.22;;;27.00;99.90;;;;;;5013207;28;20036;-51
2023/09/15 04:56:54;;;;;;;16.63;5.40;;;27.10;99.90;;;;;;5013231;28;20104;-51
2023/09/15 04:59:20;;;;;;;23.88;4.72;;;27.10;99.90;;;;;;5012939;28;20057;-52
2023/09/15 05:01:46;;;;;;;20.05;4.50;;;27.10;99.90;;;;;;5004550;28;20039;-52
2023/09/15 05:04:18;;;;;;;22.33;6.07;;;27.20;99.90;;;;;;4979890;28;20033;-51
2023/09/15 05:06:44;;;;;;;22.10;5.43;;;27.20;99.90;;;;;;5011655;28;20068;-51
2023/09/15 05:09:10;;;;;;;20.48;5.57;;;27.20;99.90;;;;;;4991961;28;20030;-52
2023/09/15 05:11:39;;;;;;;18.20;5.30;;;27.20;99.90;;;;;;5013323;28;20117;-51
2023/09/15 05:14:05;;;;;;;29.20;5.20;;;27.20;99.90;;;;;;5009866;28;20018;-52
2023/09/15 05:16:32;;;;;;;22.38;5.60;;;27.20;99.90;;;;;;5015477;28;20030;-51
2023/09/15 05:18:58;;;;;;;27.90;6.13;;;27.30;99.90;;;;;;5020051;28;20080;-51
2023/09/15 05:21:24;;;;;;;18.15;5.43;;;27.30;99.90;;;;;;5003760;28;20042;-51
2023/09/15 05:23:49;;;;;;;22.15;5.45;;;27.30;99.90;;;;;;5010529;28;20024;-52
2023/09/15 05:26:15;;;;;;;22.70;6.63;;;27.30;99.90;;;;;;4992778;28;20018;-51
2023/09/15 05:28:41;;;;;;;17.63;5.15;;;27.30;99.90;;;;;;5010565;28;20017;-52
2023/09/15 05:31:07;;;;;;;24.77;7.05;;;27.30;99.90;;;;;;5010317;28;20034;-51
2023/09/15 05:33:33;;;;;;;21.40;7.13;;;27.30;99.90;;;;;;5010569;28;20392;-52
2023/09/15 05:35:59;;;;;;;27.42;5.70;;;27.30;99.90;;;;;;5010502;28;20022;-51
2023/09/15 05:38:26;;;;;;;19.77;6.75;;;27.30;99.90;;;;;;5012402;28;20033;-52
2023/09/15 05:40:52;;;;;;;16.97;5.73;;;27.30;99.90;;;;;;5012146;28;20026;-52
2023/09/15 05:43:19;;;;;;;20.35;5.03;;;27.30;99.90;;;;;;5011348;28;20468;-51
2023/09/15 05:45:45;;;;;;;18.52;5.68;;;27.30;99.90;;;;;;5012139;28;20097;-51
2023/09/15 05:48:17;;;;;;;22.50;6.00;;;27.30;99.90;;;;;;5012244;28;20026;-51
2023/09/15 05:50:46;;;;;;;17.05;6.05;;;27.30;99.90;;;;;;5012166;28;20041;-51
2023/09/15 05:53:12;;;;;;;24.13;5.80;;;27.30;99.90;;;;;;4994739;28;20474;-51
2023/09/15 05:55:37;;;;;;;20.67;7.35;;;27.30;99.90;;;;;;5012107;28;20102;-51
2023/09/15 05:58:03;;;;;;;18.23;6.18;;;27.40;99.90;;;;;;5012581;28;20049;-51
2023/09/15 06:00:29;;;;;;;15.73;6.43;;;27.30;99.90;;;;;;5012153;28;20026;-51
2023/09/15 06:02:55;;;;;;;25.08;6.25;;;27.40;99.90;;;;;;5011893;28;20044;-51
2023/09/15 06:05:24;;;;;;;22.17;6.38;;;27.30;99.90;;;;;;5012142;28;20555;-51
2023/09/15 06:07:51;;;;;;;20.05;6.57;;;27.40;99.90;;;;;;5011950;28;20018;-51
2023/09/15 06:10:17;;;;;;;23.48;7.40;;;27.30;99.90;;;;;;5012021;28;20107;-51
2023/09/15 06:12:43;;;;;;;17.83;6.20;;;27.40;99.90;;;;;;4994559;28;20120;-51
2023/09/15 06:15:10;;;;;;;24.23;6.35;;;27.30;99.90;;;;;;5011977;28;20018;-51
2023/09/15 06:17:36;;;;;;;21.15;6.93;;;27.40;99.90;;;;;;5012040;28;20484;-51
2023/09/15 06:20:04;;;;;;;17.60;6.82;;;27.30;99.90;;;;;;5012003;28;20024;-51
2023/09/15 06:22:30;;;;;;;25.17;8.55;;;27.40;99.90;;;;;;5011811;28;20022;-51
2023/09/15 06:24:56;;;;;;;20.48;9.55;;;27.40;99.90;;;;;;5011708;28;20539;-51
2023/09/15 06:27:22;;;;;;;16.73;6.55;;;27.40;99.90;;;;;;5012014;28;20018;-51
2023/09/15 06:29:47;;;;;;;22.58;7.13;;;27.40;99.90;;;;;;5011592;28;20036;-51
2023/09/15 06:32:13;;;;;;;23.52;7.28;;;27.40;99.90;;;;;;5012088;28;20022;-51
2023/09/15 06:34:39;;;;;;;18.35;6.43;;;27.40;99.90;;;;;;5011924;28;20018;-51
2023/09/15 06:37:06;;;;;;;23.10;6.25;;;27.40;99.90;;;;;;4998426;28;20380;-51
2023/09/15 06:39:33;;;;;;;25.08;7.95;;;27.40;99.90;;;;;;5011929;28;20025;-51
2023/09/15 06:41:59;;;;;;;27.88;6.88;;;27.40;99.90;;;;;;5011637;28;20018;-51
2023/09/15 06:44:25;;;;;;;27.52;6.78;;;27.40;99.90;;;;;;5011771;28;20059;-51
2023/09/15 06:46:50;;;;;;;19.35;6.55;;;27.40;99.90;;;;;;5011537;28;20030;-51
2023/09/15 06:49:21;;;;;;;19.80;6.57;;;27.50;99.90;;;;;;5011559;28;20017;-51
2023/09/15 06:51:50;;;;;;;20.42;7.22;;;27.50;99.90;;;;;;5011638;28;20387;-51
2023/09/15 06:54:16;;;;;;;30.42;8.23;;;27.50;99.90;;;;;;4994264;28;20024;-51
2023/09/15 06:56:41;;;;;;;17.13;6.20;;;27.50;99.90;;;;;;4997850;28;20025;-52
2023/09/15 06:59:07;;;;;;;22.83;6.70;;;27.50;99.90;;;;;;5015205;28;20026;-51
2023/09/15 07:01:33;;;;;;;28.92;9.07;;;27.50;99.90;;;;;;5015635;28;20046;-51
2023/09/15 07:03:59;;;;;;;25.30;6.38;;;27.50;99.90;;;;;;5015365;28;20045;-51
2023/09/15 07:06:25;;;;;;;19.38;7.88;;;27.50;99.90;;;;;;5015166;28;20022;-52
2023/09/15 07:08:51;;;;;;;25.13;7.82;;;27.60;99.90;;;;;;5015309;28;20076;-52
2023/09/15 07:11:16;;;;;;;22.42;7.68;;;27.60;99.90;;;;;;5015019;28;20034;-52
2023/09/15 07:13:42;;;;;;;20.02;7.50;;;27.60;99.90;;;;;;5015388;28;20026;-51
2023/09/15 07:16:09;;;;;;;25.75;8.70;;;27.60;99.90;;;;;;5014952;28;20025;-52
2023/09/15 07:18:35;;;;;;;19.67;6.78;;;27.60;99.90;;;;;;5015316;28;20022;-52
2023/09/15 07:21:01;;;;;;;31.80;11.07;;;27.70;99.90;;;;;;5015175;28;20030;-52
2023/09/15 07:23:27;;;;;;;24.67;7.47;;;27.60;99.90;;;;;;5014895;28;20037;-52
2023/09/15 07:25:53;;;;;;;21.92;7.72;;;27.60;99.90;;;;;;5015091;28;20490;-53
2023/09/15 07:28:18;;;;;;;26.38;7.90;;;27.70;99.90;;;;;;5014782;28;20400;-52
2023/09/15 07:30:46;;;;;;;17.42;6.75;;;27.70;99.90;;;;;;5014843;28;20034;-52
2023/09/15 07:33:12;;;;;;;21.52;7.22;;;27.70;99.90;;;;;;5014583;28;20384;-52
2023/09/15 07:35:37;;;;;;;19.90;6.40;;;27.70;99.90;;;;;;5014732;28;20112;-52
2023/09/15 07:38:05;;;;;;;28.75;8.55;;;27.70;99.90;;;;;;5014788;28;20018;-52
2023/09/15 07:40:31;;;;;;;24.23;7.93;;;27.80;99.90;;;;;;5014969;28;20036;-52
2023/09/15 07:42:57;;;;;;;19.45;6.85;;;27.80;99.90;;;;;;5014702;28;20483;-52
2023/09/15 07:45:23;;;;;;;24.90;7.15;;;27.80;99.90;;;;;;5014472;28;20034;-52
2023/09/15 07:47:49;;;;;;;19.27;6.78;;;27.80;99.90;;;;;;5014518;28;20014;-52
2023/09/15 07:50:17;;;;;;;19.48;7.00;;;27.80;99.90;;;;;;5014337;28;20471;-52
2023/09/15 07:52:44;;;;;;;18.52;6.88;;;27.80;99.90;;;;;;4996724;28;20095;-52
2023/09/15 07:55:10;;;;;;;;;;;27.90;99.90;;;;;;5014784;28;20022;-52
2023/09/15 07:57:37;;;;;;;24.95;7.03;;;27.90;99.90;;;;;;5014161;28;19951;-51
2023/09/15 08:00:06;;;;;;;23.17;6.07;;;27.90;99.90;;;;;;5014484;28;20020;-51
2023/09/15 08:02:32;;;;;;;28.13;7.30;;;27.90;99.90;;;;;;5014120;28;20046;-51
2023/09/15 08:04:58;;;;;;;26.08;7.38;;;27.90;99.90;;;;;;5014059;28;20379;-51
2023/09/15 08:07:24;;;;;;;19.85;6.22;;;27.90;99.90;;;;;;5012963;28;20032;-52
2023/09/15 08:09:50;;;;;;;21.50;5.70;;;27.90;99.90;;;;;;5013839;28;20034;-51
2023/09/15 08:12:19;;;;;;;16.33;5.88;;;27.90;99.90;;;;;;5013852;28;20472;-52
2023/09/15 08:14:46;;;;;;;13.95;5.43;;;28.00;99.90;;;;;;5013785;28;20026;-51
2023/09/15 08:17:12;;;;;;;16.60;6.10;;;28.00;99.90;;;;;;5013882;28;20108;-51
2023/09/15 08:19:39;;;;;;;18.17;5.70;;;28.00;99.90;;;;;;5014005;28;20037;-51
2023/09/15 08:22:05;;;;;;;18.52;6.82;;;28.00;99.90;;;;;;5014122;28;20087;-51
2023/09/15 08:24:31;;;;;;;15.55;5.75;;;28.00;99.90;;;;;;5013974;28;20083;-52
2023/09/15 08:26:57;;;;;;;20.38;7.03;;;28.10;99.90;;;;;;5013724;28;20137;-53
2023/09/15 08:29:23;;;;;;;21.48;6.40;;;28.10;99.90;;;;;;4996252;28;20108;-51
2023/09/15 08:31:49;;;;;;;15.10;5.25;;;28.10;99.90;;;;;;5013496;28;20018;-51
2023/09/15 08:34:15;;;;;;;25.00;6.20;;;28.10;99.90;;;;;;5013577;28;20018;-51
2023/09/15 08:36:41;;;;;;;18.08;6.03;;;28.10;99.90;;;;;;5013466;28;20026;-52
2023/09/15 08:39:07;;;;;;;23.30;6.38;;;28.20;99.90;;;;;;5013520;28;20360;-51
2023/09/15 08:41:47;;;;;;;16.90;6.05;;;28.20;99.90;;;;;;5013549;28;20036;-52
2023/09/15 08:44:16;;;;;;;21.58;6.68;;;28.20;99.90;;;;;;5013450;28;20025;-51
2023/09/15 08:46:43;;;;;;;19.30;7.88;;;28.10;99.90;;;;;;5013208;28;20030;-51
2023/09/15 08:49:09;;;;;;;19.97;6.03;;;28.10;99.90;;;;;;5013289;28;20072;-51
2023/09/15 08:51:37;;;;;;;20.60;6.75;;;28.00;99.90;;;;;;5013404;28;20038;-52
2023/09/15 08:54:03;;;;;;;13.70;5.68;;;28.00;99.90;;;;;;5013304;28;20076;-52
2023/09/15 08:56:30;;;;;;;18.63;5.57;;;28.00;99.90;;;;;;4995609;28;20037;-52
2023/09/15 08:58:57;;;;;;;19.85;5.45;;;28.00;99.90;;;;;;5013194;28;20026;-51
2023/09/15 09:01:24;;;;;;;15.35;5.43;;;28.00;99.90;;;;;;5013021;28;20053;-51
2023/09/15 09:03:49;;;;;;;25.98;9.07;;;28.00;99.90;;;;;;5013230;28;20207;-51
2023/09/15 09:06:16;;;;;;;20.30;7.90;;;28.00;99.90;;;;;;5013032;28;20548;-51
2023/09/15 09:08:45;;;;;;;18.20;7.45;;;28.00;99.90;;;;;;4995406;28;20114;-52
2023/09/15 09:11:12;;;;;;;23.95;8.45;;;28.00;99.90;;;;;;5012589;28;20042;-51
2023/09/15 09:13:39;;;;;;;28.27;8.60;;;28.00;99.90;;;;;;5013000;28;20077;-52
2023/09/15 09:16:07;;;;;;;27.38;8.40;;;28.00;99.90;;;;;;5012764;28;20109;-52
2023/09/15 09:18:34;;;;;;;19.23;10.52;;;28.00;99.90;;;;;;4995487;28;20361;-51
2023/09/15 09:21:05;;;;;;;25.38;7.28;;;28.00;99.90;;;;;;5012997;28;20038;-51
2023/09/15 09:23:31;;;;;;;15.98;7.50;;;28.10;99.90;;;;;;5013029;28;20029;-51
2023/09/15 09:26:00;;;;;;;20.75;6.97;;;28.10;99.90;;;;;;5012631;28;20085;-51
2023/09/15 09:28:27;;;;;;;20.25;6.90;;;28.20;99.90;;;;;;4994839;28;20036;-52
2023/09/15 09:30:56;;;;;;;17.67;6.53;;;28.20;99.90;;;;;;4978976;28;20065;-51
2023/09/15 09:33:22;;;;;;;19.73;7.38;;;28.20;99.90;;;;;;4994838;28;20026;-52
2023/09/15 09:35:49;;;;;;;26.38;6.78;;;28.30;99.90;;;;;;5012651;28;20041;-51
2023/09/15 09:38:15;;;;;;;24.40;6.57;;;28.30;99.90;;;;;;5012356;28;20499;-51
2023/09/15 09:40:41;;;;;;;27.67;6.85;;;28.40;99.90;;;;;;4994861;28;20029;-51
2023/09/15 09:43:07;;;;;;;15.68;5.47;;;28.40;99.90;;;;;;5012371;28;20037;-51
2023/09/15 09:45:34;;;;;;;19.73;5.97;;;28.50;99.90;;;;;;5012435;28;20384;-51
2023/09/15 09:48:01;;;;;;;17.52;5.47;;;28.50;99.90;;;;;;5012224;28;20025;-51
2023/09/15 09:50:27;;;;;;;26.00;6.43;;;28.60;99.90;;;;;;5012170;28;20518;-51
2023/09/15 09:52:53;;;;;;;25.45;7.00;;;28.60;99.90;;;;;;4994522;28;20021;-51
2023/09/15 09:55:20;;;;;;;21.80;7.23;;;28.60;99.90;;;;;;5012148;28;20033;-51
2023/09/15 09:57:46;;;;;;;19.13;6.00;;;28.70;99.90;;;;;;5012126;28;20256;-52
2023/09/15 10:00:21;;;;;;;22.77;6.05;;;28.70;99.90;;;;;;5012249;28;20088;-52
2023/09/15 10:02:48;;;;;;;20.35;6.57;;;28.70;99.90;;;;;;5012055;28;20042;-51
2023/09/15 10:05:14;;;;;;;21.77;6.60;;;28.80;99.90;;;;;;4994433;28;20471;-51
2023/09/15 10:07:40;;;;;;;23.85;5.97;;;28.80;99.90;;;;;;5011936;28;20176;-51
2023/09/15 10:10:07;;;;;;;24.65;6.57;;;28.80;99.90;;;;;;5012024;28;20117;-52
2023/09/15 10:12:33;;;;;;;;;;;28.80;99.90;;;;;;5012615;28;20022;-51
2023/09/15 10:15:01;;;;;;;21.70;5.85;;;28.80;99.90;;;;;;5012046;28;19906;-51
2023/09/15 10:17:27;;;;;;;21.83;7.50;;;28.80;99.90;;;;;;5011950;28;20101;-51
2023/09/15 10:19:55;;;;;;;20.17;6.82;;;28.80;99.90;;;;;;5011776;28;20034;-51
2023/09/15 10:22:21;;;;;;;20.90;9.00;;;28.80;99.90;;;;;;5011804;28;20523;-52
2023/09/15 10:24:57;;;;;;;29.98;7.88;;;28.90;99.90;;;;;;5011836;28;20407;-52
2023/09/15 10:27:23;;;;;;;17.58;6.38;;;29.00;99.90;;;;;;5011919;28;20476;-51
2023/09/15 10:29:50;;;;;;;29.67;6.50;;;28.90;99.90;;;;;;5012896;28;20091;-52
2023/09/15 10:32:16;;;;;;;;;;;29.00;99.90;;;;;;5016217;28;20113;-52
2023/09/15 10:34:47;;;;;;;20.23;6.07;;;29.00;99.90;;;;;;5015631;28;19905;-52
2023/09/15 10:37:13;;;;;;;20.52;5.93;;;29.00;99.90;;;;;;4998242;28;20018;-52
2023/09/15 10:39:43;;;;;;;21.95;6.47;;;29.10;99.90;;;;;;5015789;28;20030;-52
2023/09/15 10:42:16;;;;;;;18.55;6.13;;;29.10;99.90;;;;;;5015650;28;20018;-52
2023/09/15 10:44:42;;;;;;;30.08;6.88;;;29.10;99.90;;;;;;4998071;28;20045;-52
2023/09/15 10:47:18;;;;;;;21.42;6.57;;;29.20;99.90;;;;;;5015328;28;20018;-51
2023/09/15 10:49:54;;;;;;;22.17;5.82;;;29.20;99.90;;;;;;5015547;28;20026;-51
2023/09/15 10:52:34;;;;;;;21.20;6.35;;;29.30;99.90;;;;;;5015588;28;20041;-52
2023/09/15 10:55:00;;;;;;;16.15;5.80;;;29.30;99.90;;;;;;4997974;28;20030;-52
2023/09/15 10:57:27;;;;;;;27.10;7.10;;;29.30;99.90;;;;;;5015329;28;20467;-51
2023/09/15 10:59:56;;;;;;;22.90;7.18;;;29.30;99.90;;;;;;5015359;28;20119;-52
2023/09/15 11:02:24;;;;;;;20.05;6.28;;;29.40;99.90;;;;;;5015135;28;20046;-52
2023/09/15 11:04:50;;;;;;;20.58;6.40;;;29.40;99.90;;;;;;5015371;28;20113;-52
2023/09/15 11:07:17;;;;;;;18.73;6.50;;;29.40;99.90;;;;;;5014611;28;20092;-51
2023/09/15 11:09:44;;;;;;;28.95;7.28;;;29.50;99.90;;;;;;4996725;28;20030;-51
2023/09/15 11:12:13;;;;;;;19.23;6.60;;;29.50;99.90;;;;;;5014751;28;20064;-51
2023/09/15 11:14:39;;;;;;;19.98;5.90;;;29.50;99.90;;;;;;5013842;28;20534;-52
2023/09/15 11:17:05;;;;;;;16.13;5.72;;;29.50;99.90;;;;;;5014711;28;20084;-51
2023/09/15 11:19:33;;;;;;;15.80;6.03;;;29.50;99.90;;;;;;5015038;28;20092;-51
2023/09/15 11:22:03;;;;;;;23.05;6.28;;;29.60;99.90;;;;;;5015084;28;20053;-51
2023/09/15 11:24:30;;;;;;;17.23;7.20;;;29.60;99.90;;;;;;4997400;28;20018;-50
2023/09/15 11:26:56;;;;;;;20.75;6.18;;;29.60;99.90;;;;;;5012472;28;20387;-50
2023/09/15 11:29:26;;;;;;;19.97;6.20;;;29.60;99.90;;;;;;5007872;28;20056;-51
2023/09/15 11:31:53;;;;;;;27.08;9.18;;;29.70;99.90;;;;;;5016811;28;20350;-50
2023/09/15 11:34:20;;;;;;;22.65;6.72;;;29.70;99.90;;;;;;5022559;28;20028;-51
2023/09/15 11:36:47;;;;;;;23.27;6.65;;;29.70;99.90;;;;;;5021075;28;20037;-50
2023/09/15 11:39:15;;;;;;;21.42;7.32;;;29.70;99.90;;;;;;5021863;28;20022;-50
2023/09/15 11:41:55;;;;;;;26.23;7.05;;;29.70;99.90;;;;;;5007844;28;20025;-50
2023/09/15 11:44:29;;;;;;;22.70;6.90;;;29.70;99.90;;;;;;5025048;28;20026;-50
2023/09/15 11:46:58;;;;;;;15.27;6.65;;;29.70;99.90;;;;;;5011262;28;20426;-50
2023/09/15 11:49:25;;;;;;;19.95;6.30;;;29.80;99.90;;;;;;5030429;28;20021;-51
2023/09/15 11:51:55;;;;;;;18.58;6.00;;;29.80;99.90;;;;;;5021282;28;20522;-51
2023/09/15 11:54:21;;;;;;;21.10;7.20;;;29.80;99.90;;;;;;5016044;28;20017;-51
2023/09/15 11:56:47;;;;;;;20.87;8.13;;;29.90;99.90;;;;;;5017153;28;20073;-51
2023/09/15 11:59:16;;;;;;;25.55;8.13;;;29.90;99.90;;;;;;5013842;28;20677;-50
2023/09/15 12:01:44;;;;;;;27.23;7.40;;;29.90;99.90;;;;;;5014005;28;20092;-50
2023/09/15 12:04:10;;;;;;;27.02;6.47;;;29.90;99.90;;;;;;5013393;28;20017;-51
2023/09/15 12:06:36;;;;;;;22.40;6.78;;;29.90;99.90;;;;;;5011632;28;20033;-50
2023/09/15 12:09:03;;;;;;;23.30;7.20;;;29.90;99.90;;;;;;5014105;28;20025;-51
2023/09/15 12:11:29;;;;;;;31.55;7.10;;;29.90;99.90;;;;;;5008827;28;20176;-50
2023/09/15 12:13:56;;;;;;;24.02;5.82;;;29.90;99.90;;;;;;5010454;28;20499;-51
2023/09/15 12:16:29;;;;;;;;;;;29.90;99.90;;;;;;5016168;28;20026;-51
2023/09/15 12:18:58;;;;;;;23.88;6.45;;;29.90;99.90;;;;;;5017411;28;19968;-51
2023/09/15 12:21:28;;;;;;;33.63;8.13;;;29.90;99.90;;;;;;5016501;28;20032;-51
2023/09/15 12:23:55;;;;;;;24.40;8.18;;;29.90;99.90;;;;;;5023905;28;20045;-51
2023/09/15 12:26:22;;;;;;;23.55;7.38;;;29.90;99.90;;;;;;5005819;28;20534;-50
2023/09/15 12:28:48;;;;;;;19.15;7.85;;;29.90;99.90;;;;;;5001829;28;20089;-50
2023/09/15 12:31:20;;;;;;;26.20;7.18;;;29.90;99.90;;;;;;5000320;28;20041;-48
2023/09/15 12:33:45;;;;;;;26.88;9.93;;;30.00;99.90;;;;;;4987240;28;20380;-51
2023/09/15 12:36:15;;;;;;;25.50;6.72;;;30.00;99.90;;;;;;5003500;28;20026;-51
2023/09/15 12:38:41;;;;;;;19.42;6.85;;;30.00;99.90;;;;;;4987411;28;20379;-50
2023/09/15 12:41:08;;;;;;;20.67;6.43;;;30.10;99.90;;;;;;4984854;28;20083;-51